Time,TemperatureF,DewpointF,PressureIn,WindDirection,WindDirectionDegrees,WindSpeedMPH,WindSpeedGustMPH,Humidity,HourlyPrecipIn,Conditions,Clouds,dailyrainin,SoftwareType,DateUTC
2013-01-02 03:24:00,40.8,33.1,30.06,NNE,22,3.4,3.4,74,0.00,,,0.00,WUHU21623XXSP,2013-01-02 09:24:00,
2013-01-02 03:29:00,40.8,33.1,30.05,NNE,22,3.4,3.4,74,0.00,,,0.00,WUHU21623XXSP,2013-01-02 09:29:00,
2013-01-02 03:34:00,40.8,33.2,30.05,North,0,3.4,3.4,74,0.00,,,0.00,WUHU21623XXSP,2013-01-02 09:34:00,
2013-01-02 03:39:00,40.6,33.4,30.06,North,0,3.4,3.4,75,0.00,,,0.00,WUHU21623XXSP,2013-01-02 09:39:00,
2013-01-02 03:44:00,40.6,33.4,30.06,North,0,3.4,3.4,75,0.00,,,0.00,WUHU21623XXSP,2013-01-02 09:44:00,
2013-01-02 03:49:00,40.6,33.4,30.06,North,0,3.4,3.4,75,0.00,,,0.00,WUHU21623XXSP,2013-01-02 09:49:00,
2013-01-02 16:02:00,45.1,30.3,30.05,NNE,22,5.4,5.4,56,0.00,,,0.00,WUHU21623XXSP,2013-01-02 22:02:00,
2013-01-02 16:07:00,45.1,30.3,30.05,NE,45,8.3,8.3,56,0.00,,,0.00,WUHU21623XXSP,2013-01-02 22:07:00,
2013-01-02 16:12:00,45.1,30.3,30.05,NE,45,4.3,8.3,56,0.00,,,0.00,WUHU21623XXSP,2013-01-02 22:12:00,
2013-01-02 16:17:00,45.1,30.3,30.05,ENE,67,6.7,8.3,56,0.00,,,0.00,WUHU21623XXSP,2013-01-02 22:17:00,
2013-01-02 16:22:00,45.1,30.3,30.05,NE,45,3.8,7.6,56,0.00,,,0.00,WUHU21623XXSP,2013-01-02 22:22:00,
2013-01-02 16:27:00,45.1,30.3,30.05,NE,45,3.8,3.8,56,0.00,,,0.00,WUHU21623XXSP,2013-01-02 22:27:00,
2013-01-02 16:32:00,45.1,30.3,30.04,NE,45,3.8,3.8,56,0.00,,,0.00,WUHU21623XXSP,2013-01-02 22:32:00,
2013-01-02 16:37:00,45.1,30.3,30.05,NE,45,3.8,3.8,56,0.00,,,0.00,WUHU21623XXSP,2013-01-02 22:37:00,
2013-01-02 16:42:00,45.1,30.3,30.05,NE,45,6.7,6.7,56,0.00,,,0.00,WUHU21623XXSP,2013-01-02 22:42:00,
2013-01-02 16:47:00,45.1,30.3,30.05,NNE,22,6.0,6.7,56,0.00,,,0.00,WUHU21623XXSP,2013-01-02 22:47:00,
2013-01-02 16:52:00,45.1,30.3,30.06,NNE,22,6.0,6.0,56,0.00,,,0.00,WUHU21623XXSP,2013-01-02 22:52:00,
2013-01-02 16:57:00,45.1,30.3,30.06,NNE,22,6.0,6.0,56,0.00,,,0.00,WUHU21623XXSP,2013-01-02 22:57:00,
2013-01-02 17:02:00,45.0,30.6,30.06,NE,45,3.1,6.0,57,0.00,,,0.00,WUHU21623XXSP,2013-01-02 23:02:00,
2013-01-02 17:07:00,45.0,30.2,30.05,NNE,22,4.7,6.0,57,0.00,,,0.00,WUHU21623XXSP,2013-01-02 23:07:00,
2013-01-02 17:12:00,45.0,30.2,30.05,NE,45,4.5,5.8,56,0.00,,,0.00,WUHU21623XXSP,2013-01-02 23:12:00,
2013-01-02 17:17:00,45.0,30.6,30.05,NE,45,4.5,7.4,57,0.00,,,0.00,WUHU21623XXSP,2013-01-02 23:17:00,
2013-01-02 17:22:00,45.0,30.6,30.05,NE,45,4.5,7.4,57,0.00,,,0.00,WUHU21623XXSP,2013-01-02 23:22:00,
2013-01-02 17:27:00,45.0,30.6,30.05,NE,45,6.7,6.7,57,0.00,,,0.00,WUHU21623XXSP,2013-01-02 23:27:00,
2013-01-02 17:32:00,44.8,30.5,30.06,NE,45,3.6,6.7,57,0.00,,,0.00,WUHU21623XXSP,2013-01-02 23:32:00,
2013-01-02 17:37:00,44.8,30.5,30.06,NE,45,3.6,5.6,57,0.00,,,0.00,WUHU21623XXSP,2013-01-02 23:37:00,
2013-01-02 17:42:00,44.6,30.3,30.05,NE,45,7.2,7.2,57,0.00,,,0.00,WUHU21623XXSP,2013-01-02 23:42:00,
2013-01-02 17:47:00,44.6,30.3,30.05,NE,45,7.2,7.2,57,0.00,,,0.00,WUHU21623XXSP,2013-01-02 23:47:00,
2013-01-02 17:52:00,44.6,30.3,30.05,NE,45,7.2,7.2,57,0.00,,,0.00,WUHU21623XXSP,2013-01-02 23:52:00,
2013-01-02 17:57:00,44.6,30.3,30.06,NE,45,3.4,7.2,57,0.00,,,0.00,WUHU21623XXSP,2013-01-02 23:57:00,
2013-01-02 18:02:00,44.6,30.7,30.06,NE,45,3.4,7.2,58,0.00,,,0.00,WUHU21623XXSP,2013-01-03 00:02:00,
2013-01-02 18:07:00,44.6,30.7,30.06,NE,45,3.4,3.4,58,0.00,,,0.00,WUHU21623XXSP,2013-01-03 00:07:00,
2013-01-02 18:12:00,44.4,30.6,30.07,NE,45,3.4,3.4,58,0.00,,,0.00,WUHU21623XXSP,2013-01-03 00:12:00,
2013-01-02 18:17:00,44.4,30.6,30.06,NE,45,3.4,3.4,58,0.00,,,0.00,WUHU21623XXSP,2013-01-03 00:17:00,
2013-01-02 18:22:00,44.4,30.6,30.07,NE,45,3.4,3.4,58,0.00,,,0.00,WUHU21623XXSP,2013-01-03 00:22:00,
2013-01-02 18:27:00,44.4,30.6,30.07,NE,45,4.7,4.7,58,0.00,,,0.00,WUHU21623XXSP,2013-01-03 00:27:00,
2013-01-02 18:32:00,44.2,30.4,30.07,NE,45,3.4,6.5,58,0.00,,,0.00,WUHU21623XXSP,2013-01-03 00:32:00,
2013-01-02 18:37:00,44.2,30.4,30.08,NE,45,2.5,6.5,59,0.00,,,0.00,WUHU21623XXSP,2013-01-03 00:37:00,
2013-01-02 18:42:00,44.2,30.8,30.08,NE,45,4.3,4.3,59,0.00,,,0.00,WUHU21623XXSP,2013-01-03 00:42:00,
2013-01-02 18:47:00,44.2,31.3,30.08,NE,45,1.6,4.3,60,0.00,,,0.00,WUHU21623XXSP,2013-01-03 00:47:00,
2013-01-02 18:52:00,44.2,31.3,30.08,NE,45,5.1,5.1,60,0.00,,,0.00,WUHU21623XXSP,2013-01-03 00:52:00,
2013-01-02 18:57:00,44.1,30.6,30.08,NE,45,3.1,5.1,59,0.00,,,0.00,WUHU21623XXSP,2013-01-03 00:57:00,
2013-01-02 19:02:00,44.1,31.1,30.08,NE,45,3.1,4.9,60,0.00,,,0.00,WUHU21623XXSP,2013-01-03 01:02:00,
2013-01-02 19:07:00,43.9,31.1,30.08,NE,45,4.5,4.5,60,0.00,,,0.00,WUHU21623XXSP,2013-01-03 01:07:00,
2013-01-02 19:12:00,43.9,30.9,30.08,NE,45,3.6,4.5,60,0.00,,,0.00,WUHU21623XXSP,2013-01-03 01:12:00,
2013-01-02 19:17:00,43.9,30.9,30.08,NE,45,3.6,3.8,60,0.00,,,0.00,WUHU21623XXSP,2013-01-03 01:17:00,
2013-01-02 19:22:00,43.9,30.9,30.08,NE,45,4.7,4.7,61,0.00,,,0.00,WUHU21623XXSP,2013-01-03 01:22:00,
2013-01-02 19:27:00,43.5,30.9,30.08,NE,45,4.3,4.7,61,0.00,,,0.00,WUHU21623XXSP,2013-01-03 01:27:00,
2013-01-02 19:32:00,43.3,30.9,30.08,NE,45,5.1,5.1,61,0.00,,,0.00,WUHU21623XXSP,2013-01-03 01:32:00,
2013-01-02 19:37:00,43.3,30.8,30.08,ENE,67,7.4,7.4,61,0.00,,,0.00,WUHU21623XXSP,2013-01-03 01:37:00,
2013-01-02 19:42:00,43.3,30.8,30.08,NE,45,4.3,7.4,61,0.00,,,0.00,WUHU21623XXSP,2013-01-03 01:42:00,
2013-01-02 19:47:00,43.2,31.0,30.08,NE,45,3.1,6.3,62,0.00,,,0.00,WUHU21623XXSP,2013-01-03 01:47:00,
2013-01-02 19:52:00,43.0,31.0,30.08,NNE,22,2.7,5.6,62,0.00,,,0.00,WUHU21623XXSP,2013-01-03 01:52:00,
2013-01-02 19:57:00,43.0,30.8,30.09,NE,45,3.1,3.1,62,0.00,,,0.00,WUHU21623XXSP,2013-01-03 01:57:00,
2013-01-02 20:02:00,43.0,31.2,30.08,NE,45,4.0,4.0,63,0.00,,,0.00,WUHU21623XXSP,2013-01-03 02:02:00,
2013-01-02 20:07:00,42.6,30.8,30.09,NE,45,3.4,4.0,63,0.00,,,0.00,WUHU21623XXSP,2013-01-03 02:07:00,
2013-01-02 20:12:00,42.6,30.8,30.09,NE,45,4.0,4.0,63,0.00,,,0.00,WUHU21623XXSP,2013-01-03 02:12:00,
2013-01-02 20:17:00,42.6,30.8,30.09,NE,45,4.0,4.0,64,0.00,,,0.00,WUHU21623XXSP,2013-01-03 02:17:00,
2013-01-02 20:22:00,42.6,31.2,30.09,NE,45,4.7,4.7,64,0.00,,,0.00,WUHU21623XXSP,2013-01-03 02:22:00,
2013-01-02 20:27:00,42.6,31.2,30.10,NE,45,2.9,4.7,64,0.00,,,0.00,WUHU21623XXSP,2013-01-03 02:27:00,
2013-01-02 20:32:00,42.6,31.2,30.10,NE,45,2.7,2.9,64,0.00,,,0.00,WUHU21623XXSP,2013-01-03 02:32:00,
2013-01-02 20:37:00,42.6,31.2,30.09,NE,45,3.1,3.1,64,0.00,,,0.00,WUHU21623XXSP,2013-01-03 02:37:00,
2013-01-02 20:42:00,42.6,31.2,30.10,NE,45,0.0,3.1,64,0.00,,,0.00,WUHU21623XXSP,2013-01-03 02:42:00,
2013-01-02 20:47:00,42.6,31.2,30.10,NE,45,2.2,3.6,64,0.00,,,0.00,WUHU21623XXSP,2013-01-03 02:47:00,
2013-01-02 20:52:00,42.6,31.2,30.10,NE,45,0.0,3.6,64,0.00,,,0.00,WUHU21623XXSP,2013-01-03 02:52:00,
2013-01-02 20:57:00,42.6,31.6,30.10,NE,45,0.0,2.2,65,0.00,,,0.00,WUHU21623XXSP,2013-01-03 02:57:00,
2013-01-02 21:02:00,42.6,31.6,30.10,NE,45,3.8,3.8,65,0.00,,,0.00,WUHU21623XXSP,2013-01-03 03:02:00,
2013-01-02 21:07:00,42.6,31.2,30.10,NE,45,0.0,3.8,64,0.00,,,0.00,WUHU21623XXSP,2013-01-03 03:07:00,
2013-01-02 21:12:00,42.6,31.6,30.11,NNE,22,4.7,4.7,64,0.00,,,0.00,WUHU21623XXSP,2013-01-03 03:12:00,
2013-01-02 21:17:00,42.6,31.2,30.10,NE,45,2.7,4.7,64,0.00,,,0.00,WUHU21623XXSP,2013-01-03 03:17:00,
2013-01-02 21:22:00,42.6,31.2,30.11,NE,45,4.0,4.7,64,0.00,,,0.00,WUHU21623XXSP,2013-01-03 03:22:00,
2013-01-02 21:27:00,42.6,31.2,30.11,NE,45,6.9,6.9,64,0.00,,,0.00,WUHU21623XXSP,2013-01-03 03:27:00,
2013-01-02 21:32:00,42.6,31.2,30.12,NE,45,3.8,6.9,64,0.00,,,0.00,WUHU21623XXSP,2013-01-03 03:32:00,
2013-01-02 21:37:00,42.6,31.2,30.12,NNE,22,59.3,59.3,64,0.00,,,0.00,WUHU21623XXSP,2013-01-03 03:37:00,
2013-01-02 21:42:00,42.6,31.6,30.12,NE,45,3.8,59.3,65,0.00,,,0.00,WUHU21623XXSP,2013-01-03 03:42:00,
2013-01-02 21:47:00,42.6,31.6,30.12,NE,45,6.0,59.3,65,0.00,,,0.00,WUHU21623XXSP,2013-01-03 03:47:00,
2013-01-02 21:52:00,42.6,31.6,30.12,NE,45,6.5,8.1,65,0.00,,,0.00,WUHU21623XXSP,2013-01-03 03:52:00,
2013-01-02 21:57:00,42.6,31.6,30.12,ENE,67,6.3,6.5,65,0.00,,,0.00,WUHU21623XXSP,2013-01-03 03:57:00,
2013-01-02 22:02:00,42.4,31.6,30.12,SSW,202,59.7,59.7,66,0.00,,,0.00,WUHU21623XXSP,2013-01-03 04:02:00,
2013-01-02 22:07:00,42.4,31.9,30.12,SSW,202,59.7,59.7,66,0.00,,,0.00,WUHU21623XXSP,2013-01-03 04:07:00,
2013-01-02 22:12:00,42.1,31.9,30.12,NNE,22,5.6,60.2,66,0.00,,,0.00,WUHU21623XXSP,2013-01-03 04:12:00,
2013-01-02 22:17:00,42.1,31.1,30.12,NE,45,3.8,60.2,65,0.00,,,0.00,WUHU21623XXSP,2013-01-03 04:17:00,
2013-01-02 22:22:00,42.1,31.1,30.12,ENE,67,8.1,8.1,65,0.00,,,0.00,WUHU21623XXSP,2013-01-03 04:22:00,
2013-01-02 22:27:00,41.9,31.0,30.12,ENE,67,6.7,8.1,65,0.00,,,0.00,WUHU21623XXSP,2013-01-03 04:27:00,
2013-01-02 22:32:00,41.9,31.0,30.12,NE,45,7.4,7.4,65,0.00,,,0.00,WUHU21623XXSP,2013-01-03 04:32:00,
2013-01-02 22:37:00,41.9,31.0,30.12,NNE,22,9.2,9.2,65,0.00,,,0.00,WUHU21623XXSP,2013-01-03 04:37:00,
2013-01-02 22:42:00,41.7,30.8,30.12,NE,45,3.8,9.2,65,0.00,,,0.00,WUHU21623XXSP,2013-01-03 04:42:00,
2013-01-02 22:47:00,41.7,30.8,30.12,ENE,67,6.9,6.9,65,0.00,,,0.00,WUHU21623XXSP,2013-01-03 04:47:00,
2013-01-02 22:52:00,41.7,30.8,30.12,NE,45,4.9,6.9,65,0.00,,,0.00,WUHU21623XXSP,2013-01-03 04:52:00,
2013-01-02 22:57:00,41.7,31.2,30.12,NE,45,1.1,4.9,66,0.00,,,0.00,WUHU21623XXSP,2013-01-03 04:57:00,
2013-01-02 23:00:00,41.7,31.2,30.12,NE,45,5.6,5.6,65,0.00,,,0.00,WUHU21623XXSP,2013-01-03 05:00:00,
2013-01-02 23:02:00,41.7,31.2,30.12,NE,45,5.6,5.6,65,0.00,,,0.00,WUHU21623XXSP,2013-01-03 05:02:00,
2013-01-02 23:03:00,41.7,30.8,30.12,NE,45,3.8,5.6,65,0.00,,,0.00,WUHU21623XXSP,2013-01-03 05:03:00,
2013-01-02 23:08:00,41.5,31.0,30.12,NE,45,6.5,6.5,66,0.00,,,0.00,WUHU21623XXSP,2013-01-03 05:08:00,
2013-01-02 23:13:00,41.5,31.0,30.12,ENE,67,6.9,8.3,66,0.00,,,0.00,WUHU21623XXSP,2013-01-03 05:13:00,
2013-01-02 23:18:00,41.5,31.0,30.12,NE,45,8.5,8.5,66,0.00,,,0.00,WUHU21623XXSP,2013-01-03 05:18:00,
2013-01-02 23:23:00,41.5,31.4,30.12,NE,45,8.5,8.5,67,0.00,,,0.00,WUHU21623XXSP,2013-01-03 05:23:00,
2013-01-02 23:28:00,41.5,31.4,30.12,NE,45,8.5,8.5,67,0.00,,,0.00,WUHU21623XXSP,2013-01-03 05:28:00,
2013-01-02 23:33:00,41.5,31.4,30.11,NE,45,8.5,8.5,67,0.00,,,0.00,WUHU21623XXSP,2013-01-03 05:33:00,
2013-01-02 23:38:00,41.4,31.2,30.11,NE,45,2.9,8.5,67,0.00,,,0.00,WUHU21623XXSP,2013-01-03 05:38:00,
2013-01-02 23:43:00,41.4,31.2,30.11,NE,45,6.9,6.9,67,0.00,,,0.00,WUHU21623XXSP,2013-01-03 05:43:00,
2013-01-02 23:48:00,41.4,31.2,30.11,NE,45,6.9,6.9,67,0.00,,,0.00,WUHU21623XXSP,2013-01-03 05:48:00,
2013-01-02 23:53:00,41.2,31.6,30.11,NE,45,6.9,6.9,68,0.00,,,0.00,WUHU21623XXSP,2013-01-03 05:53:00,
2013-01-02 23:58:00,41.2,31.4,30.12,NE,45,5.4,6.9,68,0.00,,,0.00,WUHU21623XXSP,2013-01-03 05:58:00,